createdAt,value
2023-01-02T00:02:07.712Z,99783.75
2023-01-02T00:04:34.418Z,99770.19
2023-01-02T00:07:01.215Z,99747.56
2023-01-02T00:09:27.894Z,99738.09
2023-01-02T00:11:54.508Z,99722.03
2023-01-02T00:14:21.155Z,99720.84
2023-01-02T00:16:47.765Z,99709.66
2023-01-02T00:19:14.424Z,99693.13
2023-01-02T00:21:41.137Z,99677.81
2023-01-02T00:24:08.140Z,99677.13
2023-01-02T00:26:34.767Z,99667.59
2023-01-02T00:29:02.313Z,99667.81
2023-01-02T00:31:28.964Z,99663.72
2023-01-02T00:33:55.606Z,99650.38
2023-01-02T00:36:22.287Z,99626.34
2023-01-02T00:38:49.088Z,99633.56
2023-01-02T00:41:17.128Z,99635.53
2023-01-02T00:43:43.811Z,99625.53
2023-01-02T00:46:12.254Z,99627.03
2023-01-02T00:48:39.939Z,99625.09
2023-01-02T00:51:06.581Z,99635.81
2023-01-02T00:53:34.981Z,99637.91
2023-01-02T00:56:01.598Z,99645.63
2023-01-02T00:58:28.298Z,99630.91
2023-01-02T01:00:54.945Z,99641.75
2023-01-02T01:03:21.643Z,99644.47
2023-01-02T01:05:48.248Z,99651.91
2023-01-02T01:08:15.398Z,99647.38
2023-01-02T01:10:42.047Z,99669.41
2023-01-02T01:13:08.680Z,99662.03
2023-01-02T01:15:35.403Z,99665.94
2023-01-02T01:18:02.051Z,99661.13
2023-01-02T01:20:28.876Z,99664.31
2023-01-02T01:22:55.590Z,99654.81
2023-01-02T01:25:22.297Z,99641.69
2023-01-02T01:27:48.902Z,99642.72
2023-01-02T01:30:16.726Z,99624.53
2023-01-02T01:32:45.406Z,99622.75
2023-01-02T01:35:12.054Z,99623.44
2023-01-02T01:37:40.060Z,99617.94
2023-01-02T01:40:07.448Z,99613.75
2023-01-02T01:42:34.434Z,99618.00
2023-01-02T01:45:01.527Z,99607.22
2023-01-02T01:47:34.176Z,99603.16
2023-01-02T01:50:05.790Z,99601.72
2023-01-02T01:52:34.259Z,99601.38
2023-01-02T01:55:13.626Z,99598.25
2023-01-02T01:57:45.285Z,99610.00
2023-01-02T02:00:12.419Z,99602.19
2023-01-02T02:02:42.280Z,99612.44
2023-01-02T02:05:10.132Z,99607.25
2023-01-02T02:07:40.018Z,99603.63
2023-01-02T02:10:12.620Z,99595.50
2023-01-02T02:12:39.321Z,99597.69
2023-01-02T02:15:09.532Z,99590.34
2023-01-02T02:18:15.330Z,99589.97
2023-01-02T02:20:57.161Z,99577.63
2023-01-02T02:23:48.419Z,99581.44
2023-01-02T02:27:02.937Z,99580.31
2023-01-02T02:30:04.373Z,99582.97
2023-01-02T02:32:55.977Z,99574.72
2023-01-02T02:35:35.015Z,99550.44
2023-01-02T02:38:09.914Z,99555.59
2023-01-02T02:40:54.944Z,99557.91
2023-01-02T02:44:09.806Z,99559.34
2023-01-02T02:46:51.503Z,99560.34
2023-01-02T02:49:56.617Z,99553.66
2023-01-02T02:52:29.945Z,99555.94
2023-01-02T02:55:30.426Z,99549.88
2023-01-02T02:57:58.654Z,99563.31
2023-01-02T03:00:25.287Z,99548.63
2023-01-02T03:02:51.981Z,99562.03
2023-01-02T03:05:28.696Z,99587.41
2023-01-02T03:08:01.960Z,99568.00
2023-01-02T03:10:57.368Z,99572.31
2023-01-02T03:13:56.289Z,99573.00
2023-01-02T03:16:34.993Z,99573.28
2023-01-02T03:19:27.403Z,99578.28
2023-01-02T03:22:03.309Z,99567.88
2023-01-02T03:24:31.002Z,99575.34
2023-01-02T03:27:03.068Z,99583.88
2023-01-02T03:29:39.937Z,99585.69
2023-01-02T03:32:10.615Z,99591.28
2023-01-02T03:34:39.071Z,99590.09
2023-01-02T03:37:12.074Z,99576.47
2023-01-02T03:39:45.124Z,99585.53
2023-01-02T03:42:29.482Z,99583.00
2023-01-02T03:45:02.491Z,99574.09
2023-01-02T03:47:44.232Z,99576.59
2023-01-02T03:50:17.273Z,99574.66
2023-01-02T03:52:43.935Z,99575.84
2023-01-02T03:55:10.901Z,99574.88
2023-01-02T03:57:55.175Z,99575.69
2023-01-02T04:00:30.542Z,99576.97
2023-01-02T04:03:12.287Z,99597.34
2023-01-02T04:05:44.103Z,99611.41
2023-01-02T04:08:28.301Z,99625.97
2023-01-02T04:10:58.656Z,99635.69
2023-01-02T04:13:30.446Z,99646.78
2023-01-02T04:15:57.915Z,99651.56
2023-01-02T04:18:29.737Z,99657.13
2023-01-02T04:20:59.630Z,99670.59
2023-01-02T04:23:53.741Z,99680.03
2023-01-02T04:26:51.225Z,99673.94
2023-01-02T04:29:17.928Z,99689.81
2023-01-02T04:31:55.136Z,99697.31
2023-01-02T04:34:22.485Z,99706.03
2023-01-02T04:36:49.200Z,99706.03
2023-01-02T04:39:15.833Z,99706.97
2023-01-02T04:41:42.643Z,99707.59
2023-01-02T04:44:09.319Z,99720.75
2023-01-02T04:46:35.987Z,99722.66
2023-01-02T04:49:02.671Z,99735.88
2023-01-02T04:51:29.370Z,99728.88
2023-01-02T04:53:56.074Z,99730.31
2023-01-02T04:56:23.061Z,99731.72
2023-01-02T04:58:50.248Z,99727.19
2023-01-02T05:01:19.315Z,99727.69
2023-01-02T05:03:48.417Z,99732.50
2023-01-02T05:06:16.040Z,99735.28
2023-01-02T05:08:42.910Z,99731.72
2023-01-02T05:11:17.570Z,99723.41
2023-01-02T05:13:44.539Z,99726.09
2023-01-02T05:16:11.765Z,99718.84
2023-01-02T05:18:38.464Z,99703.56
2023-01-02T05:21:32.758Z,99695.88
2023-01-02T05:24:02.582Z,99673.81
2023-01-02T05:26:32.737Z,99669.78
2023-01-02T05:28:59.641Z,99658.56
2023-01-02T05:31:27.084Z,99643.66
2023-01-02T05:33:55.051Z,99643.63
2023-01-02T05:36:22.773Z,99641.13
2023-01-02T05:38:49.551Z,99618.44
2023-01-02T05:41:16.592Z,99621.91
2023-01-02T05:43:43.172Z,99616.53
2023-01-02T05:46:18.209Z,99615.81
2023-01-02T05:48:45.353Z,99616.06
2023-01-02T05:51:14.158Z,99608.63
2023-01-02T05:53:40.883Z,99617.69
2023-01-02T05:56:15.188Z,99608.66
2023-01-02T05:58:44.184Z,99631.94
2023-01-02T06:01:12.247Z,99644.44
2023-01-02T06:03:39.408Z,99645.88
2023-01-02T06:06:08.451Z,99655.09
2023-01-02T06:08:35.688Z,99661.66
2023-01-02T06:11:03.188Z,99665.38
2023-01-02T06:13:30.512Z,99681.66
2023-01-02T06:15:58.000Z,99669.84
2023-01-02T06:18:24.835Z,99671.03
2023-01-02T06:20:51.818Z,99677.94
2023-01-02T06:23:18.776Z,99681.03
2023-01-02T06:25:45.378Z,99676.25
2023-01-02T06:28:12.774Z,99672.00
2023-01-02T06:30:39.453Z,99678.19
2023-01-02T06:33:06.095Z,99666.31
2023-01-02T06:35:32.742Z,99648.38
2023-01-02T06:37:59.347Z,99636.66
2023-01-02T06:40:26.319Z,99631.47
2023-01-02T06:42:57.098Z,99626.63
2023-01-02T06:45:26.977Z,99617.88
2023-01-02T06:47:58.129Z,99614.81
2023-01-02T06:50:31.220Z,99603.94
2023-01-02T06:53:01.283Z,99602.28
2023-01-02T06:55:27.979Z,99613.03
2023-01-02T06:57:54.630Z,99603.81
2023-01-02T07:00:21.277Z,99610.63
2023-01-02T07:02:48.081Z,99602.09
2023-01-02T07:05:18.456Z,99608.06
2023-01-02T07:07:47.895Z,99630.09
2023-01-02T07:10:14.556Z,99618.53
2023-01-02T07:12:41.163Z,99627.34
2023-01-02T07:15:08.347Z,99624.19
2023-01-02T07:17:35.079Z,99633.97
2023-01-02T07:20:02.507Z,99630.03
2023-01-02T07:22:29.403Z,99635.56
2023-01-02T07:24:56.147Z,99635.28
2023-01-02T07:27:22.826Z,99626.38
2023-01-02T07:29:49.487Z,99632.81
2023-01-02T07:32:16.206Z,99625.22
2023-01-02T07:34:42.861Z,99642.28
2023-01-02T07:37:09.454Z,99647.19
2023-01-02T07:39:36.063Z,99650.56
2023-01-02T07:42:02.750Z,99650.00
2023-01-02T07:44:29.450Z,99660.84
2023-01-02T07:46:56.103Z,99677.44
2023-01-02T07:49:22.663Z,99670.09
2023-01-02T07:51:49.395Z,99679.59
2023-01-02T07:54:18.129Z,99684.34
2023-01-02T07:56:44.819Z,99691.00
2023-01-02T07:59:14.544Z,99684.44
2023-01-02T08:01:41.812Z,99688.66
2023-01-02T08:04:08.521Z,99699.97
2023-01-02T08:06:35.302Z,99695.88
2023-01-02T08:09:01.934Z,99690.41
2023-01-02T08:11:28.563Z,99698.47
2023-01-02T08:13:55.242Z,99696.44
2023-01-02T08:16:22.410Z,99703.31
2023-01-02T08:18:52.224Z,99709.88
2023-01-02T08:21:18.960Z,99707.56
2023-01-02T08:23:45.543Z,99723.09
2023-01-02T08:26:12.258Z,99729.41
2023-01-02T08:28:40.183Z,99728.16
2023-01-02T08:31:18.494Z,99730.66
2023-01-02T08:33:45.527Z,99742.03
2023-01-02T08:36:12.463Z,99737.88
2023-01-02T08:38:39.017Z,99740.06
2023-01-02T08:41:05.853Z,99751.75
2023-01-02T08:43:36.094Z,99755.72
2023-01-02T08:46:07.312Z,99745.47
2023-01-02T08:48:34.661Z,99755.81
2023-01-02T08:51:01.696Z,99774.72
2023-01-02T08:53:28.322Z,99766.66
2023-01-02T08:55:54.912Z,99774.16
2023-01-02T08:58:21.573Z,99779.50
2023-01-02T09:00:48.316Z,99779.97
2023-01-02T09:03:15.060Z,99775.88
2023-01-02T09:05:41.685Z,99771.66
2023-01-02T09:08:08.339Z,99780.06
2023-01-02T09:10:35.042Z,99784.72
2023-01-02T09:13:01.682Z,99781.38
2023-01-02T09:15:28.385Z,99780.63
2023-01-02T09:17:54.995Z,99792.78
2023-01-02T09:20:21.663Z,99794.59
2023-01-02T09:22:48.313Z,99795.91
2023-01-02T09:25:18.985Z,99807.03
2023-01-02T09:27:51.554Z,99811.69
2023-01-02T09:30:19.231Z,99805.06
2023-01-02T09:32:46.104Z,99838.78
2023-01-02T09:35:12.701Z,99819.63
2023-01-02T09:37:39.282Z,99824.53
2023-01-02T09:40:06.411Z,99824.91
2023-01-02T09:42:33.074Z,99833.50
2023-01-02T09:45:08.471Z,99837.16
2023-01-02T09:47:35.874Z,99839.09
2023-01-02T09:50:05.108Z,99843.19
2023-01-02T09:52:43.600Z,99841.69
2023-01-02T09:55:15.747Z,99840.13
2023-01-02T09:58:13.673Z,99835.94
2023-01-02T10:00:42.175Z,99853.19
2023-01-02T10:03:27.865Z,99839.81
2023-01-02T10:06:03.509Z,99836.63
2023-01-02T10:08:32.511Z,99844.44
2023-01-02T10:11:02.443Z,99849.81
2023-01-02T10:14:20.801Z,99854.28
2023-01-02T10:16:38.748Z,99844.44
2023-01-02T10:19:14.921Z,99859.97
2023-01-02T10:21:42.872Z,99866.59
2023-01-02T10:24:21.447Z,99869.81
2023-01-02T10:26:53.307Z,99873.25
2023-01-02T10:29:31.947Z,99901.75
2023-01-02T10:32:01.485Z,99895.94
2023-01-02T10:34:42.019Z,99894.59
2023-01-02T10:37:18.010Z,99876.22
2023-01-02T10:39:45.679Z,99903.63
2023-01-02T10:42:16.295Z,99894.91
2023-01-02T10:44:44.487Z,99884.53
2023-01-02T10:47:11.361Z,99885.06
2023-01-02T10:49:41.496Z,99884.84
2023-01-02T10:52:33.959Z,99883.13
2023-01-02T10:55:01.424Z,99889.97
2023-01-02T10:57:44.894Z,99901.75
2023-01-02T11:00:27.392Z,99919.28
2023-01-02T11:02:57.313Z,99928.56
2023-01-02T11:05:29.779Z,99943.13
2023-01-02T11:07:57.925Z,99954.53
2023-01-02T11:10:28.031Z,99950.56
2023-01-02T11:12:55.069Z,99961.13
2023-01-02T11:15:27.384Z,99963.22
2023-01-02T11:17:54.304Z,99978.94
2023-01-02T11:20:32.562Z,99979.59
2023-01-02T11:23:02.005Z,99980.81
2023-01-02T11:25:36.243Z,99981.66
2023-01-02T11:28:03.252Z,99989.88
2023-01-02T11:30:37.521Z,100003.06
2023-01-02T11:33:19.466Z,100018.59
2023-01-02T11:35:52.949Z,100012.19
2023-01-02T11:38:30.104Z,100022.97
2023-01-02T11:41:02.553Z,100014.31
2023-01-02T11:43:50.006Z,100027.53
2023-01-02T11:46:36.960Z,100037.38
2023-01-02T11:49:07.083Z,100039.22
2023-01-02T11:51:35.590Z,100036.22
2023-01-02T11:54:05.031Z,100027.94
2023-01-02T11:56:36.209Z,100036.00
2023-01-02T11:59:21.417Z,100028.38
2023-01-02T12:02:00.378Z,100039.69
2023-01-02T12:04:27.404Z,100046.72
2023-01-02T12:07:23.114Z,100047.94
2023-01-02T12:10:19.025Z,100049.81
2023-01-02T12:12:52.281Z,100053.53
2023-01-02T12:15:31.508Z,100054.97
2023-01-02T12:18:18.816Z,100056.41
2023-01-02T12:21:06.809Z,100069.19
2023-01-02T12:23:58.557Z,100067.69
2023-01-02T12:26:29.829Z,100074.72
2023-01-02T12:29:14.873Z,100079.88
2023-01-02T12:32:19.761Z,100077.38
2023-01-02T12:35:21.095Z,100081.75
2023-01-02T12:37:58.862Z,100087.94
2023-01-02T12:40:35.083Z,100087.50
2023-01-02T12:43:25.781Z,100093.28
2023-01-02T12:46:08.300Z,100098.03
2023-01-02T12:48:42.178Z,100107.91
2023-01-02T12:51:30.704Z,100106.06
2023-01-02T12:54:20.633Z,100106.66
2023-01-02T12:56:56.717Z,100102.13
2023-01-02T13:00:08.710Z,100114.66
2023-01-02T13:02:50.897Z,100111.75
2023-01-02T13:05:19.947Z,100108.47
2023-01-02T13:07:51.100Z,100107.19
2023-01-02T13:10:20.821Z,100111.94
2023-01-02T13:12:48.287Z,100122.41
2023-01-02T13:15:20.686Z,100133.13
2023-01-02T13:17:50.381Z,100135.34
2023-01-02T13:20:20.032Z,100139.47
2023-01-02T13:22:55.934Z,100149.31
2023-01-02T13:25:23.610Z,100163.63
2023-01-02T13:27:51.099Z,100166.31
2023-01-02T13:30:38.572Z,100175.31
2023-01-02T13:33:20.168Z,100177.97
2023-01-02T13:35:46.893Z,100180.00
2023-01-02T13:38:15.037Z,100184.34
2023-01-02T13:40:41.781Z,100193.63
2023-01-02T13:43:15.924Z,100206.41
2023-01-02T13:45:50.075Z,100216.09
2023-01-02T13:48:33.186Z,100234.41
2023-01-02T13:51:15.523Z,100246.66
2023-01-02T13:53:47.044Z,100252.78
2023-01-02T13:56:13.802Z,100267.09
2023-01-02T13:59:00.662Z,100280.44
2023-01-02T14:01:34.480Z,100276.75
2023-01-02T14:04:07.430Z,100281.34
2023-01-02T14:06:38.522Z,100286.19
2023-01-02T14:09:05.180Z,100294.66
2023-01-02T14:11:55.409Z,100292.31
2023-01-02T14:14:33.484Z,100298.09
2023-01-02T14:17:19.000Z,100309.34
2023-01-02T14:19:46.039Z,100305.47
2023-01-02T14:22:16.098Z,100332.63
2023-01-02T14:24:49.437Z,100317.63
2023-01-02T14:27:16.044Z,100323.28
2023-01-02T14:29:52.968Z,100340.69
2023-01-02T14:32:39.130Z,100344.84
2023-01-02T14:35:08.415Z,100336.84
2023-01-02T14:37:45.252Z,100344.13
2023-01-02T14:40:24.777Z,100341.28
2023-01-02T14:43:22.285Z,100354.19
2023-01-02T14:45:51.388Z,100366.47
2023-01-02T14:48:32.163Z,100357.63
2023-01-02T14:51:07.302Z,100372.00
2023-01-02T14:53:38.894Z,100362.59
2023-01-02T14:56:12.365Z,100355.59
2023-01-02T14:58:48.015Z,100352.78
2023-01-02T15:01:42.011Z,100363.09
2023-01-02T15:04:20.893Z,100361.28
2023-01-02T15:07:09.562Z,100369.94
2023-01-02T15:09:38.287Z,100356.97
2023-01-02T15:12:47.212Z,100355.47
2023-01-02T15:15:19.371Z,100358.41
2023-01-02T15:17:47.715Z,100376.66
2023-01-02T15:20:22.988Z,100370.44
2023-01-02T15:22:52.778Z,100376.50
2023-01-02T15:25:52.555Z,100384.91
2023-01-02T15:28:39.147Z,100386.47
2023-01-02T15:31:15.847Z,100392.53
2023-01-02T15:33:42.685Z,100394.94
2023-01-02T15:36:10.598Z,100390.41
2023-01-02T15:38:37.258Z,100402.09
2023-01-02T15:41:04.475Z,100401.19
2023-01-02T15:43:52.265Z,100410.66
2023-01-02T15:46:19.331Z,100413.59
2023-01-02T15:48:46.443Z,100409.28
2023-01-02T15:51:18.004Z,100411.41
2023-01-02T15:53:45.024Z,100408.91
2023-01-02T15:56:34.306Z,100410.84
2023-01-02T15:59:01.225Z,100409.75
2023-01-02T16:01:28.027Z,100424.38
2023-01-02T16:04:01.141Z,100426.41
2023-01-02T16:06:45.721Z,100423.38
2023-01-02T16:09:26.750Z,100421.44
2023-01-02T16:11:56.822Z,100416.63
2023-01-02T16:14:29.811Z,100417.19
2023-01-02T16:17:31.697Z,100416.75
2023-01-02T16:20:17.627Z,100407.91
2023-01-02T16:22:44.264Z,100404.78
2023-01-02T16:25:11.820Z,100400.81
2023-01-02T16:27:47.476Z,100400.09
2023-01-02T16:30:16.678Z,100400.47
2023-01-02T16:32:48.525Z,100402.03
2023-01-02T16:35:22.593Z,100403.69
2023-01-02T16:38:16.924Z,100408.53
2023-01-02T16:41:00.071Z,100414.81
2023-01-02T16:43:30.403Z,100410.75
2023-01-02T16:45:57.664Z,100413.31
2023-01-02T16:48:27.897Z,100412.97
2023-01-02T16:50:55.712Z,100405.16
2023-01-02T16:53:25.647Z,100402.00
2023-01-02T16:55:53.338Z,100417.00
2023-01-02T16:58:20.511Z,100418.28
2023-01-02T17:00:48.382Z,100412.69
2023-01-02T17:03:18.128Z,100426.84
2023-01-02T17:06:01.540Z,100432.72
2023-01-02T17:08:31.788Z,100447.06
2023-01-02T17:10:59.509Z,100460.41
2023-01-02T17:13:26.704Z,100464.00
2023-01-02T17:15:53.346Z,100472.22
2023-01-02T17:18:20.592Z,100464.84
2023-01-02T17:20:47.275Z,100478.84
2023-01-02T17:23:13.894Z,100493.34
2023-01-02T17:25:42.512Z,100499.53
2023-01-02T17:28:09.347Z,100497.41
2023-01-02T17:30:36.019Z,100502.09
2023-01-02T17:33:04.368Z,100499.63
2023-01-02T17:35:33.470Z,100514.25
2023-01-02T17:38:00.193Z,100514.41
2023-01-02T17:40:26.985Z,100514.41
2023-01-02T17:42:54.113Z,100531.13
2023-01-02T17:45:20.741Z,100526.97
2023-01-02T17:48:01.128Z,100534.81
2023-01-02T17:50:32.506Z,100532.78
2023-01-02T17:52:59.934Z,100540.63
2023-01-02T17:55:26.607Z,100554.78
2023-01-02T17:57:53.309Z,100559.31
2023-01-02T18:00:23.336Z,100560.97
2023-01-02T18:02:52.169Z,100570.13
2023-01-02T18:05:19.074Z,100568.84
2023-01-02T18:07:45.830Z,100577.47
2023-01-02T18:10:17.389Z,100577.00
2023-01-02T18:12:46.865Z,100584.19
2023-01-02T18:15:14.989Z,100593.19
2023-01-02T18:17:41.822Z,100596.00
2023-01-02T18:20:14.271Z,100596.00
2023-01-02T18:22:48.051Z,100598.09
2023-01-02T18:25:16.265Z,100602.44
2023-01-02T18:27:45.172Z,100600.78
2023-01-02T18:30:19.228Z,100604.31
2023-01-02T18:32:46.766Z,100605.81
2023-01-02T18:38:21.745Z,100618.19
2023-01-02T18:40:48.433Z,100628.47
2023-01-02T18:43:22.983Z,100636.97
2023-01-02T18:45:52.823Z,100645.81
2023-01-02T18:48:20.115Z,100649.00
2023-01-02T18:50:55.859Z,100648.19
2023-01-02T18:53:26.062Z,100647.34
2023-01-02T18:55:57.414Z,100654.53
2023-01-02T18:58:47.571Z,100660.88
2023-01-02T19:01:19.024Z,100664.56
2023-01-02T19:03:48.238Z,100664.25
2023-01-02T19:06:24.685Z,100676.22
2023-01-02T19:08:51.455Z,100679.72
2023-01-02T19:11:55.912Z,100690.22
2023-01-02T19:14:24.127Z,100700.28
2023-01-02T19:17:05.867Z,100699.63
2023-01-02T19:19:38.604Z,100712.44
2023-01-02T19:22:18.227Z,100726.13
2023-01-02T19:24:45.521Z,100732.78
2023-01-02T19:27:36.971Z,100736.63
2023-01-02T19:30:18.898Z,100752.94
2023-01-02T19:32:47.996Z,100756.63
2023-01-02T19:35:34.487Z,100760.09
2023-01-02T19:38:15.825Z,100768.47
2023-01-02T19:40:42.447Z,100771.31
2023-01-02T19:43:09.374Z,100779.97
2023-01-02T19:45:35.988Z,100782.00
2023-01-02T19:48:02.746Z,100788.81
2023-01-02T19:50:31.111Z,100791.16
2023-01-02T19:52:57.819Z,100796.47
2023-01-02T19:55:24.534Z,100794.00
2023-01-02T19:57:51.366Z,100792.81
2023-01-02T20:00:19.460Z,100790.97
2023-01-02T20:02:49.567Z,100788.66
2023-01-02T20:05:21.479Z,100783.66
2023-01-02T20:07:50.848Z,100782.66
2023-01-02T20:10:18.212Z,100785.69
2023-01-02T20:12:44.946Z,100782.50
2023-01-02T20:15:17.467Z,100773.50
2023-01-02T20:17:45.146Z,100766.88
2023-01-02T20:20:15.579Z,100763.88
2023-01-02T20:22:43.642Z,100745.06
2023-01-02T20:25:15.503Z,100751.91
2023-01-02T20:27:42.172Z,100747.56
2023-01-02T20:30:09.746Z,100744.25
2023-01-02T20:32:36.659Z,100743.63
2023-01-02T20:35:04.361Z,100748.28
2023-01-02T20:37:31.107Z,100741.44
2023-01-02T20:39:58.141Z,100739.13
2023-01-02T20:42:24.888Z,100744.47
2023-01-02T20:44:51.930Z,100750.94
2023-01-02T20:47:18.828Z,100758.09
2023-01-02T20:49:45.503Z,100761.44
2023-01-02T20:52:12.185Z,100766.25
2023-01-02T20:54:38.888Z,100773.09
2023-01-02T20:57:05.578Z,100783.91
2023-01-02T20:59:32.298Z,100782.09
2023-01-02T21:01:59.113Z,100790.22
2023-01-02T21:04:32.546Z,100793.56
2023-01-02T21:07:03.297Z,100800.88
2023-01-02T21:09:30.230Z,100803.38
2023-01-02T21:11:56.810Z,100807.53
2023-01-02T21:14:23.455Z,100815.69
2023-01-02T21:16:50.585Z,100813.38
2023-01-02T21:19:17.261Z,100812.19
2023-01-02T21:21:43.851Z,100820.38
2023-01-02T21:24:10.625Z,100826.19
2023-01-02T21:26:37.225Z,100824.50
2023-01-02T21:29:04.278Z,100822.69
2023-01-02T21:31:30.978Z,100833.34
2023-01-02T21:33:57.700Z,100831.00
2023-01-02T21:36:24.285Z,100840.16
2023-01-02T21:38:52.316Z,100838.81
2023-01-02T21:41:37.522Z,100835.69
2023-01-02T21:44:04.247Z,100832.69
2023-01-02T21:46:30.949Z,100836.84
2023-01-02T21:48:57.602Z,100840.81
2023-01-02T21:51:27.670Z,100844.00
2023-01-02T21:53:57.433Z,100845.00
2023-01-02T21:56:24.069Z,100850.31
2023-01-02T21:58:50.701Z,100854.00
2023-01-02T22:01:17.551Z,100856.31
2023-01-02T22:03:44.407Z,100866.31
2023-01-02T22:06:11.171Z,100873.44
2023-01-02T22:08:37.851Z,100868.97
2023-01-02T22:11:23.111Z,100873.78
2023-01-02T22:13:49.745Z,100869.13
2023-01-02T22:16:16.396Z,100876.97
2023-01-02T22:18:43.219Z,100879.44
2023-01-02T22:21:09.880Z,100878.13
2023-01-02T22:23:36.678Z,100874.78
2023-01-02T22:26:03.322Z,100880.78
2023-01-02T22:28:29.973Z,100874.63
2023-01-02T22:30:56.709Z,100870.47
2023-01-02T22:33:23.359Z,100865.13
2023-01-02T22:35:50.062Z,100875.09
2023-01-02T22:38:16.774Z,100868.28
2023-01-02T22:40:43.473Z,100876.75
2023-01-02T22:43:12.801Z,100882.28
2023-01-02T22:45:45.138Z,100886.25
2023-01-02T22:48:19.827Z,100886.41
2023-01-02T22:50:48.997Z,100889.41
2023-01-02T22:53:17.659Z,100893.22
2023-01-02T22:55:44.251Z,100898.34
2023-01-02T22:58:10.905Z,100903.97
2023-01-02T23:00:37.559Z,100903.16
2023-01-02T23:03:04.274Z,100911.31
2023-01-02T23:05:30.914Z,100904.13
2023-01-02T23:07:57.573Z,100914.75
2023-01-02T23:10:24.391Z,100914.44
2023-01-02T23:12:51.072Z,100921.28
2023-01-02T23:15:19.247Z,100923.25
2023-01-02T23:18:04.513Z,100930.69
2023-01-02T23:20:31.276Z,100933.16
2023-01-02T23:22:57.948Z,100941.78
2023-01-02T23:25:24.574Z,100938.06
2023-01-02T23:27:51.332Z,100945.56
2023-01-02T23:30:18.046Z,100944.31
2023-01-02T23:32:45.229Z,100940.91
2023-01-02T23:35:11.883Z,100949.53
2023-01-02T23:37:38.576Z,100947.69
2023-01-02T23:40:06.174Z,100959.19
2023-01-02T23:42:32.831Z,100956.88
2023-01-02T23:44:59.768Z,100949.34
2023-01-02T23:47:26.636Z,100951.34
2023-01-02T23:49:53.239Z,100959.69
2023-01-02T23:52:19.897Z,100966.44
2023-01-02T23:54:46.542Z,100964.28
2023-01-02T23:57:13.223Z,100970.13
2023-01-02T23:59:39.865Z,100966.66
